Johan Hjort — LDGJ — position and weather

sailwx.info

Track history (hours):
 
Tides and Currents Weather Stations Pressure Air Temp Water Temp Dewpoint Dewpoint Depression Visibility Wind Speed Wind Dir Waves Ship Positions

Oceanographic research ship Johan Hjort (Norway)

Detailed information on ship capabilities available from University of Delaware's Ocean Information Center and ARCUS's ALIAS (Arctic Logistics Information and Support) project.

Last reported at 2019-Feb-16 03:00 UTC. Time now 2019-Feb-16 04:25 UTC.
Position N 72°42' E 036°48'.

MMSI: 257139000.

Wind from 020 at 14 knots

Barometer 1000.2 mb
Air temperature -6.4 ° C
Dewpoint -11.8 ° C
Water temperature 6.3 ° C

Date/timePositionNaut miles runAvg speedWind from/ knotsBaromVisibWave heightAir tempDewpointWater temp
2019-Feb-16 03:00N 72°42' E 036°48'1110.7 020 / 141000.2 -6.4-11.8 6.3
2019-Feb-16 02:00N 72°48' E 036°18'5 5.3 030 / 191000.2 -6.2-11.9 6.7
2019-Feb-16 01:00N 72°48' E 036°00'0 0.0 320 / 191000.1 -6.3-10.9 6.6
2019-Feb-16 00:00N 72°48' E 036°00'6 6.3 330 / 211000.0 -5.5-11.8 6.6
2019-Feb-15 23:00N 72°42' E 035°54'5 5.4 320 / 23999.7 -5.3-12.8 6.7
2019-Feb-15 22:00N 72°42' E 035°36'0 0.0 340 / 27999.2 -5.1-13.2 6.9
2019-Feb-15 21:00N 72°42' E 035°36'0 0.0 330 / 23999.2 -5.1-15.0 6.8
2019-Feb-15 20:00N 72°42' E 035°36'6 6.0 340 / 27998.1 -4.6-12.7 6.8
2019-Feb-15 19:00N 72°36' E 035°36'0 0.0 340 / 29997.6 -4.7-11.9 6.9
2019-Feb-15 18:00N 72°36' E 035°36'6 6.0 340 / 29996.8 -4.4-11.8 7.2
2019-Feb-15 17:00N 72°42' E 035°36'0 0.0 330 / 31996.0 -4.1-11.0 7.0
2019-Feb-15 16:00N 72°42' E 035°36'2 1.8 340 / 35994.7 -3.8-10.9 6.8
2019-Feb-15 15:00N 72°42' E 035°30'2 1.8 340 / 35993.7 -3.2-8.5 7.1
2019-Feb-15 14:00N 72°42' E 035°36'2 1.8 340 / 39992.2 -2.3-7.8 7.5
2019-Feb-15 13:00N 72°42' E 035°30'6 6.0 340 / 43990.1 -1.7-7.0 7.5
2019-Feb-15 12:00N 72°36' E 035°30'0 0.0 340 / 41988.5 -0.8-6.8 7.4
2019-Feb-15 11:00N 72°36' E 035°30'6 6.0 330 / 39987.0 -0.5-4.9 8.2
2019-Feb-15 10:00N 72°30' E 035°30'6 6.0 310 / 35985.7 0.2-4.9 7.8
2019-Feb-15 09:00N 72°24' E 035°30'0 0.0 330 / 27986.1 0.8-7.3 8.5
2019-Feb-15 08:00N 72°24' E 035°30'6 6.3 985.8 0.6-6.0 8.2
2019-Feb-15 07:00N 72°18' E 035°24'1212.0 030 / 21984.5 0.7-6.6 8.3
2019-Feb-15 06:00N 72°06' E 035°24'7 7.0 030 / 23983.3 0.7-6.8 8.1
2019-Feb-15 05:00N 72°00' E 035°12'6 6.0 040 / 23982.2 -0.2-3.0 7.7
2019-Feb-15 04:00N 72°06' E 035°12'18 9.0 050 / 16981.7 -0.3-3.4 7.8
2019-Feb-15 02:00N 71°48' E 035°18'6 6.0 140 / 10980.2 -1.3-3.3 7.9
2019-Feb-15 01:00N 71°42' E 035°18'2 1.9 130 / 8980.0 -1.9-3.9 7.6
2019-Feb-15 00:00N 71°42' E 035°12'9 9.4 140 / 14979.9 -1.2-3.6 7.9
2019-Feb-14 23:00N 71°42' E 034°42'9 9.4 140 / 12980.1 -1.1-3.7 8.2
2019-Feb-14 22:00N 71°42' E 034°12'6 6.0 140 / 12980.5 -0.9-3.0 8.1
2019-Feb-14 21:00N 71°48' E 034°12'1212.0 160 / 14981.8 -1.0-3.9 8.2
2019-Feb-14 20:00N 71°36' E 034°12'6 6.0 170 / 14982.7 -1.0-4.6 8.1
2019-Feb-14 19:00N 71°30' E 034°12'0 0.0 180 / 19984.1 -0.8-5.3 7.7
2019-Feb-14 18:00N 71°30' E 034°12'6 6.3 190 / 25985.7 -0.8-5.6 8.0
2019-Feb-14 17:00N 71°24' E 034°06'0 0.0 180 / 27987.6 -1.3-5.6 8.1
2019-Feb-14 16:00N 71°24' E 034°06'1212.0 200 / 25989.2 -0.2-4.3 8.0
2019-Feb-14 15:00N 71°12' E 034°06'6 6.0 200 / 23991.2 -0.6-4.7 7.6
2019-Feb-14 14:00N 71°06' E 034°06'2 1.9 210 / 25993.1 -1.3-4.8 7.9
2019-Feb-14 13:00N 71°06' E 034°12'7 7.2 210 / 27994.7 -1.5-4.9 8.1
2019-Feb-14 12:00N 71°00' E 034°00'1212.0 220 / 27996.2 -1.7-5.5 7.7
2019-Feb-14 11:00N 70°48' E 034°00'2 2.0 210 / 29998.3 -2.2-5.9 8.1
2019-Feb-14 10:00N 70°48' E 033°54'0 0.0 210 / 29999.7 -2.3-6.2 7.9
2019-Feb-14 09:00N 70°48' E 033°54'6 5.9 210 / 331001.1 -1.8-5.4 7.9
2019-Feb-14 08:00N 70°48' E 033°36'10 9.9 210 / 311002.3 -1.7-5.7 8.2
2019-Feb-14 07:00N 70°48' E 033°06'7 7.2 210 / 311002.7 -1.5-5.4 7.8
2019-Feb-14 06:00N 70°42' E 032°54'6 6.0 210 / 331004.1 -0.9-6.0 8.3
2019-Feb-14 05:00N 70°36' E 032°54'1212.0 210 / 311005.5 -0.9-7.4 7.7
2019-Feb-14 04:00N 70°24' E 032°54'541.6 200 / 251007.1 -1.0-8.7 8.1
2019-Feb-14 03:52N 70°29' E 032°56'6 6.4
2019-Feb-14 03:00N 70°24' E 033°00'6 6.0 200 / 311007.7 -1.3-10.9 8.1
2019-Feb-14 02:00N 70°24' E 033°18'1010.1 200 / 331008.1 -1.1-11.7 7.7
2019-Feb-14 01:00N 70°24' E 033°48'4 4.0 210 / 231009.0 -0.7-11.0 7.9
2019-Feb-14 00:00N 70°24' E 034°00'87 5.8 220 / 191009.4 -0.0-8.4 8.0
2019-Feb-13 09:00N 69°00' E 033°00'12 6.1 160 / 81003.2 -3.7-6.9 8.3
2019-Feb-13 07:00N 69°06' E 033°30'6 6.0 040 / 141001.2 -0.2-7.3 8.1
2019-Feb-13 06:00N 69°12' E 033°30'1212.0 030 / 141000.7 -0.4-6.1 8.2
2019-Feb-13 05:00N 69°24' E 033°30'6 6.0 020 / 231000.5 -0.4-6.1 8.0
2019-Feb-13 04:00N 69°30' E 033°30'1212.0 030 / 211000.1 -0.0-7.4 8.0
2019-Feb-13 03:00N 69°42' E 033°30'6 6.0 020 / 23999.8 1.1-7.5 8.4
2019-Feb-13 02:00N 69°48' E 033°30'9 8.6 020 / 23 0.2-8.0 8.5
2019-Feb-13 01:00N 69°54' E 033°12'810.4 040 / 21998.7 -0.0-7.0 8.1
2019-Feb-13 00:15N 70°00' E 032°59'210.0
2019-Feb-13 00:00N 70°02' E 032°53'2171.9
2019-Feb-13 00:00N 70°00' E 032°48'510.3 030 / 21998.7 0.1-6.2 8.7
2019-Feb-12 23:30N 70°04' E 032°40'611.0
2019-Feb-12 23:00N 70°06' E 032°24'1892.1 020 / 23998.5 -0.0-7.7 8.3
2019-Feb-12 22:59N 70°07' E 032°25'511.1
2019-Feb-12 22:30N 70°09' E 032°11'612.1
2019-Feb-12 22:00N 70°06' E 031°54'42672.2 020 / 21998.6 0.2-6.0 8.6
2019-Feb-12 21:59N 70°10' E 031°54'510.3
2019-Feb-12 21:30N 70°09' E 031°40'510.2
2019-Feb-12 21:00N 70°07' E 031°25'2210.2
2019-Feb-12 21:00N 70°06' E 031°24'4 8.6 030 / 19998.2 0.2-4.5 8.9
2019-Feb-12 20:30N 70°05' E 031°12'510.4
2019-Feb-12 20:00N 70°03' E 030°59'3436.7
2019-Feb-12 20:00N 70°00' E 030°54'3 5.8 020 / 25997.8 0.4-4.6 8.7
2019-Feb-12 19:30N 70°00' E 030°46'510.4
2019-Feb-12 19:00N 69°58' E 030°32'4360.6
2019-Feb-12 19:00N 69°54' E 030°30'4 7.6 020 / 23997.5 1.1-4.9 9.5
2019-Feb-12 18:30N 69°55' E 030°20'5 9.3
2019-Feb-12 18:00N 69°53' E 030°08'53323.0
2019-Feb-12 18:00N 69°48' E 030°06'1 1.3 150 / 19997.3 0.5-3.0 9.0
2019-Feb-12 17:30N 69°49' E 030°06'5 9.4
2019-Feb-12 17:00N 69°44' E 030°04'3165.8
2019-Feb-12 17:00N 69°42' E 030°00'2 4.8 160 / 2997.1 -6.2-8.7 9.1
2019-Feb-12 16:30N 69°44' E 030°05'0 0.0
2019-Feb-12 16:00N 69°44' E 030°05'2165.5
2019-Feb-12 16:00N 69°42' E 030°00'2 4.5 160 / 2996.8 -6.8-9.610.0
2019-Feb-12 15:27N 69°44' E 030°05'0 0.0
2019-Feb-12 15:00N 69°44' E 030°05'2172.1
2019-Feb-12 15:00N 69°42' E 030°00'2 4.9 160 / 2996.3 -7.0-9.9 9.0
2019-Feb-12 14:30N 69°44' E 030°05'0 0.0
2019-Feb-12 14:00N 69°44' E 030°05'2175.6
2019-Feb-12 14:00N 69°42' E 030°00'2 4.9 160 / 4995.8 -7.5-10.8 9.3
2019-Feb-12 13:30N 69°44' E 030°05'0 0.0
2019-Feb-12 13:00N 69°44' E 030°05'2179.2
2019-Feb-12 13:00N 69°42' E 030°00'2 4.9 170 / 2995.3 -7.1-10.5 9.1
2019-Feb-12 12:30N 69°44' E 030°05'0 0.0
2019-Feb-12 12:00N 69°44' E 030°05'2191.2
2019-Feb-12 12:00N 69°42' E 030°00'2 4.9 170 / 2994.7 -7.7-11.1 8.6
2019-Feb-12 11:30N 69°44' E 030°05'0 0.0
2019-Feb-12 11:00N 69°44' E 030°05'2200.1
2019-Feb-12 11:00N 69°42' E 030°00'2 4.9 180 / 4994.1 -7.7-11.3 8.7
2019-Feb-12 10:30N 69°44' E 030°05'0 0.0
2019-Feb-12 10:00N 69°44' E 030°05'2200.1
2019-Feb-12 10:00N 69°42' E 030°00'2 4.9 180 / 4994.1 -7.9-11.4 8.8
2019-Feb-12 09:30N 69°44' E 030°05'0 0.0
2019-Feb-12 09:00N 69°44' E 030°05'2209.8
2019-Feb-12 09:00N 69°42' E 030°00'2 4.9 170 / 4993.7 -7.8-11.7 8.4
2019-Feb-12 08:30N 69°44' E 030°05'0 0.0
2019-Feb-12 08:00N 69°44' E 030°05'2220.6
2019-Feb-12 08:00N 69°42' E 030°00'2 4.9 170 / 4993.2 -7.9-11.8 8.6
2019-Feb-12 07:30N 69°44' E 030°05'0 0.0
2019-Feb-12 07:00N 69°44' E 030°05'2232.5
2019-Feb-12 07:00N 69°42' E 030°00'2 4.9 170 / 4993.3 -8.0-11.8 8.8
2019-Feb-12 06:30N 69°44' E 030°05'0 0.0
2019-Feb-12 06:00N 69°44' E 030°05'2239.0
2019-Feb-12 06:00N 69°42' E 030°00'2 4.9 170 / 4993.5 -8.0-11.6 8.9
2019-Feb-12 05:30N 69°44' E 030°05'0 0.0
2019-Feb-12 05:00N 69°44' E 030°05'2245.8
2019-Feb-12 05:00N 69°42' E 030°00'2 4.9 190 / 4993.1 -8.0-11.6 8.3
2019-Feb-12 04:30N 69°44' E 030°05'0 0.0
2019-Feb-12 04:00N 69°44' E 030°05'2268.9
2019-Feb-12 04:00N 69°42' E 030°00'2 4.9 190 / 4993.5 -8.0-11.6 8.6
2019-Feb-12 03:30N 69°44' E 030°05'0 0.0
2019-Feb-12 03:00N 69°44' E 030°05'2277.5
2019-Feb-12 03:00N 69°42' E 030°00'2 4.9 210 / 6993.6 -7.7-11.5 8.7
2019-Feb-12 02:30N 69°44' E 030°05'0 0.0
2019-Feb-12 02:00N 69°44' E 030°05'2296.7
2019-Feb-12 02:00N 69°42' E 030°00'2 4.9 210 / 6993.3 -6.7-10.0 8.6
2019-Feb-12 01:30N 69°44' E 030°05'0 0.0
2019-Feb-12 01:00N 69°44' E 030°05'2318.7
2019-Feb-12 01:00N 69°42' E 030°00'2 4.9 180 / 8993.0 -6.5-9.8 8.4
2019-Feb-12 00:30N 69°44' E 030°05'0 0.0
2019-Feb-12 00:00N 69°44' E 030°05'2330.9
2019-Feb-12 00:00N 69°42' E 030°00'2 4.8 200 / 8993.0 -5.9-9.0 8.4
2019-Feb-11 23:30N 69°44' E 030°05'0 0.0
2019-Feb-11 23:00N 69°44' E 030°05'2358.5
2019-Feb-11 23:00N 69°42' E 030°00'2 4.8 220 / 8992.8 -4.9-8.0 8.7
2019-Feb-11 22:30N 69°44' E 030°05'0 0.0
2019-Feb-11 22:00N 69°44' E 030°05'2374.1
2019-Feb-11 22:00N 69°42' E 030°00'2 4.8 210 / 6992.3 -4.7-8.0 8.6
2019-Feb-11 21:30N 69°44' E 030°05'0 0.0
2019-Feb-11 21:00N 69°44' E 030°05'2409.7
2019-Feb-11 21:00N 69°42' E 030°00'2 4.8 200 / 6992.1 -4.4-7.4 8.4
2019-Feb-11 20:30N 69°44' E 030°05'0 0.0
2019-Feb-11 20:00N 69°44' E 030°05'2430.2
2019-Feb-11 20:00N 69°42' E 030°00'2 4.8 190 / 6991.7 -4.0-7.3 8.5
2019-Feb-11 19:30N 69°44' E 030°05'0 0.0
2019-Feb-11 19:00N 69°44' E 030°05'2478.0
2019-Feb-11 19:00N 69°42' E 030°00'2 4.8 190 / 4991.7 -3.8-7.2 8.5
2019-Feb-11 18:30N 69°44' E 030°05'0 0.0
2019-Feb-11 18:00N 69°44' E 030°05'2506.1
2019-Feb-11 18:00N 69°42' E 030°00'2 4.9 190 / 6991.0 -3.7-7.1 8.4
2019-Feb-11 17:30N 69°44' E 030°05'3 6.2
2019-Feb-11 17:00N 69°47' E 030°05'5356.5
2019-Feb-11 17:00N 69°42' E 030°00'918.5 190 / 10991.0 -2.8-5.9 8.1
2019-Feb-11 16:30N 69°51' E 030°07'5 9.6
2019-Feb-11 16:00N 69°55' E 030°12'1107.5
2019-Feb-11 16:00N 69°54' E 030°12'612.3 220 / 12990.2 -1.6-5.3 8.3
2019-Feb-11 15:30N 69°59' E 030°22'5 9.8
2019-Feb-11 15:00N 70°02' E 030°32'3270.1
2019-Feb-11 15:00N 70°00' E 030°30'714.9 240 / 14855.9 -1.1-4.0 8.6
2019-Feb-11 14:30N 70°06' E 030°42'5 9.9
2019-Feb-11 14:00N 70°10' E 030°52'4443.8
2019-Feb-11 14:00N 70°06' E 030°48'917.7 240 / 16988.8 -0.6-3.4 8.4
2019-Feb-11 13:30N 70°13' E 031°03'510.5
2019-Feb-11 13:00N 70°18' E 031°11'64296.5
2019-Feb-11 13:00N 70°12' E 031°06'1122.7 220 / 12988.1 -0.5-2.9 8.3
2019-Feb-11 12:30N 70°23' E 031°15'510.1
2019-Feb-11 12:00N 70°27' E 031°20'41062.0
2019-Feb-11 12:00N 70°24' E 031°18'917.6 230 / 4987.7 -0.0-2.0 8.8
2019-Feb-11 11:30N 70°33' E 031°23'510.7
2019-Feb-11 11:00N 70°38' E 031°24'21163.1
2019-Feb-11 11:00N 70°36' E 031°24'714.5 180 / 6987.2 0.4-1.9 8.3
2019-Feb-11 10:30N 70°43' E 031°28'510.5
2019-Feb-11 10:00N 70°48' E 031°31'178.6
2019-Feb-11 10:00N 70°48' E 031°30'511.2 150 / 8987.2 0.6-2.9 8.6
2019-Feb-11 09:30N 70°53' E 031°35'510.7
2019-Feb-11 09:00N 70°58' E 031°39'510.7
2019-Feb-11 08:30N 71°04' E 031°42'510.7
2019-Feb-11 08:00N 71°09' E 031°45'3211.3
2019-Feb-11 08:00N 71°06' E 031°42'917.4 130 / 8986.6 1.3-3.0 8.8
2019-Feb-11 07:30N 71°14' E 031°49'510.5
2019-Feb-11 07:00N 71°19' E 031°52'2569.2
2019-Feb-11 07:00N 71°18' E 031°48'813.7 110 / 12986.5 1.8-2.3 8.7
2019-Feb-11 06:26N 71°25' E 031°55'1 2.8
2019-Feb-11 06:00N 71°24' E 031°54'2512.3 090 / 25986.5 2.1-2.1 8.5
2019-Feb-11 04:00N 71°48' E 032°12'1212.1 090 / 27987.3 1.2-2.6 8.4
2019-Feb-11 03:00N 72°00' E 032°18'6 6.3 080 / 27987.8 0.9-2.1 8.3
2019-Feb-11 02:00N 72°06' E 032°24'1212.1 080 / 27988.2 0.5-2.7 8.1
2019-Feb-11 01:00N 72°18' E 032°30'1312.5 080 / 25989.4 0.2-4.1 8.4
2019-Feb-11 00:00N 72°30' E 032°42'6 6.0 090 / 27990.0 0.1-4.5 8.2
2019-Feb-10 23:00N 72°36' E 032°42'1312.5 090 / 29990.2 0.2-5.6 8.0
2019-Feb-10 22:00N 72°48' E 032°54'1212.1 090 / 29990.8 0.2-6.3 8.1
2019-Feb-10 21:00N 73°00' E 033°00'7 6.9 100 / 29991.6 -0.0-8.3 7.5
2019-Feb-10 20:00N 73°06' E 033°12'1212.1 100 / 27992.1 -0.0-7.2 7.7
2019-Feb-10 19:00N 73°18' E 033°18'1212.1 090 / 27992.7 -0.1-6.9 7.8
2019-Feb-10 18:00N 73°30' E 033°24'6 6.2 100 / 23993.6 -0.4-6.4 8.1
2019-Feb-10 17:00N 73°36' E 033°30'1212.5 090 / 23994.1 -0.4-7.5 8.0
2019-Feb-10 16:00N 73°48' E 033°42'6 6.2 090 / 25995.0 -0.5-8.0 8.1
2019-Feb-10 15:00N 73°54' E 033°48'6 6.2 090 / 23995.2 -0.9-5.6 7.7
2019-Feb-10 14:00N 74°00' E 033°42'2 1.7 090 / 23995.7 -1.0-9.6 7.8
2019-Feb-10 13:00N 74°00' E 033°36'8 8.3 090 / 23996.0 -1.1-7.6 7.5
2019-Feb-10 12:00N 74°00' E 034°06'10 9.9 100 / 19996.4 -1.1-7.9 7.4
2019-Feb-10 11:00N 74°00' E 034°42'7 6.6 090 / 17996.7 -1.0-7.4 7.7
2019-Feb-10 10:00N 74°00' E 035°06'6 6.2 090 / 16996.7 -1.1-8.7 7.0
2019-Feb-10 09:00N 73°54' E 035°00'9 8.9 090 / 16996.7 -1.0-8.2 7.2
2019-Feb-10 08:00N 74°00' E 035°24'10 9.9 110 / 16996.7 -1.3-7.5 7.2
2019-Feb-10 07:00N 74°00' E 036°00'9 4.5 100 / 16996.7 -1.2-9.2 6.9
2019-Feb-10 05:00N 73°54' E 036°24'6 6.2 090 / 12997.1 -1.6-6.5 7.1
2019-Feb-10 04:00N 74°00' E 036°30'6 6.0 100 / 14997.0 -2.0-6.6 6.7
2019-Feb-10 03:00N 74°06' E 036°30'1212.1 100 / 19997.1 -1.6-8.8 6.6
2019-Feb-10 02:00N 74°18' E 036°36'0 0.0 100 / 16997.6 -1.6-10.5 6.5
2019-Feb-10 01:00N 74°18' E 036°36'0 0.0 110 / 16997.7 0.9-8.5 6.9
2019-Feb-10 00:00N 74°18' E 036°36'1010.1 110 / 16997.5 -1.6-7.9 6.7
2019-Feb-09 23:00N 74°24' E 036°06'8 8.1 100 / 16997.3 -1.3-8.4 6.5
2019-Feb-09 22:00N 74°24' E 035°36'6 6.5 120 / 17997.2 -1.1-8.4 6.5
2019-Feb-09 21:00N 74°24' E 035°12'0 0.0 120 / 16997.2 -0.8-8.3 6.7
2019-Feb-09 20:00N 74°24' E 035°12'8 8.1 130 / 16997.0 -0.9-8.6 6.6
2019-Feb-09 19:00N 74°24' E 034°42'10 9.7 120 / 17996.5 -0.8-9.7 6.8
2019-Feb-09 18:00N 74°24' E 034°06'6 6.5 140 / 21995.8 -0.6-7.7 6.6
2019-Feb-09 17:00N 74°24' E 033°42'2 1.6 150 / 23995.5 -0.2-5.9 6.4
2019-Feb-09 16:00N 74°24' E 033°36'6 6.5 160 / 14995.5 -1.1-3.4 6.6
2019-Feb-09 15:00N 74°24' E 033°12'10 9.7 130 / 16995.0 -0.6-4.4 6.8
2019-Feb-09 14:00N 74°24' E 032°36'5 4.8 080 / 17994.5 -0.5-4.7 6.4
2019-Feb-09 13:00N 74°24' E 032°18'3 3.2 040 / 6994.5 -1.1-5.0 6.3
2019-Feb-09 12:00N 74°24' E 032°06'3 3.2 050 / 25994.6 -1.6-3.8 6.6
2019-Feb-09 11:00N 74°24' E 032°18'6 6.2 070 / 25994.8 -1.6-4.5 6.8
2019-Feb-09 10:00N 74°30' E 032°12'6 6.0 070 / 25995.0 -0.8-5.4 6.2
2019-Feb-09 09:00N 74°36' E 032°12'1212.0 070 / 23995.8 -0.2-5.8 6.6
2019-Feb-09 08:00N 74°48' E 032°12'6 6.0 080 / 21848.4 -0.5-9.9 6.7
2019-Feb-09 07:00N 74°54' E 032°12'9 8.7 090 / 21996.6 -0.5-8.3 6.5
2019-Feb-09 06:00N 74°48' E 032°36'9 9.4 090 / 19996.7 -0.1-8.1 6.0
2019-Feb-09 05:00N 74°48' E 033°12'8 7.9 090 / 17997.2 -0.8-8.5 6.6
2019-Feb-09 04:00N 74°48' E 033°42'0 0.0 090 / 17997.2 -1.0-7.3 6.0
2019-Feb-09 03:00N 74°48' E 033°42'1111.0 110 / 17997.7 -0.5-6.6 6.1
2019-Feb-09 02:00N 74°48' E 034°24'9 9.4 110 / 19998.0 -1.2-6.3 6.2
2019-Feb-09 01:00N 74°48' E 035°00'3 3.1 120 / 17998.0 -0.9-6.7 6.1
2019-Feb-09 00:00N 74°48' E 035°12'2 1.6 110 / 14998.2 -0.9-6.7 5.8
2019-Feb-08 23:00N 74°48' E 035°18'3 3.1 100 / 16998.6 -1.2-4.9 5.5
2019-Feb-08 22:00N 74°48' E 035°30'10 9.9 120 / 16999.0 -1.7-5.5 5.6
2019-Feb-08 21:00N 74°42' E 036°00'6 6.0 110 / 14999.1 -0.8-6.2 5.8
2019-Feb-08 20:00N 74°48' E 036°00'6 6.3 110 / 14954.0 -0.7-5.9 5.4
2019-Feb-08 19:00N 74°48' E 036°24'1212.4 100 / 17999.2 -0.8-6.3 5.2
2019-Feb-08 18:00N 75°00' E 036°36'6 6.2 100 / 17999.7 -1.2-5.7 5.1
2019-Feb-08 17:00N 75°06' E 036°42'6 6.2 100 / 171000.2 -1.3-6.9 5.6
2019-Feb-08 16:00N 75°12' E 036°48'6 6.0 100 / 161000.6 -1.3-6.0 5.7
2019-Feb-08 15:00N 75°06' E 036°48'9 8.6 100 / 171000.5 -1.1-7.2 5.5
2019-Feb-08 14:00N 75°12' E 036°24'9 9.2 100 / 191000.7 -1.1-6.9 5.4
2019-Feb-08 13:00N 75°12' E 035°48'8 7.7 100 / 191000.8 -1.1-7.3 5.7
2019-Feb-08 12:00N 75°12' E 035°18'0 0.0 110 / 191000.6 -1.5-6.1 6.3
2019-Feb-08 11:00N 75°12' E 035°18'2 1.5 110 / 211000.6 -1.1-6.4 6.6
2019-Feb-08 10:00N 75°12' E 035°24'5 4.6 110 / 211000.7 -1.1-7.3 6.3
2019-Feb-08 09:00N 75°12' E 035°06'9 9.2 110 / 191000.6 -1.1-7.5 6.6
2019-Feb-08 08:00N 75°12' E 034°30'8 7.7 110 / 211000.3 -0.6-7.2 7.2
2019-Feb-08 07:00N 75°12' E 034°00'2 1.5 110 / 211000.1 -0.4-7.5 7.4
2019-Feb-08 06:00N 75°12' E 033°54'2 1.5 120 / 19999.8 -0.6-6.1 6.8
2019-Feb-08 05:00N 75°12' E 033°48'9 9.2 130 / 19999.6 -0.6-6.5 6.9
2019-Feb-08 04:00N 75°12' E 033°12'9 9.2 120 / 14999.5 -0.6-7.0 6.7
2019-Feb-08 03:00N 75°12' E 032°36'5 4.6 110 / 12999.5 -0.9-7.2 7.0
2019-Feb-08 02:00N 75°12' E 032°18'8 7.7 120 / 14999.2 -0.9-7.3 6.9
2019-Feb-08 01:00N 75°12' E 031°48'8 7.7 140 / 10999.0 -0.5-10.9 6.7
2019-Feb-08 00:00N 75°12' E 031°18'8 7.7 130 / 12998.6 -0.5-10.8 6.6
2019-Feb-07 23:00N 75°12' E 030°48'6 6.2 100 / 16998.2 -0.8-5.7 6.8
2019-Feb-07 22:00N 75°18' E 030°42'6 6.0 090 / 16998.6 -1.4-4.7 7.0
2019-Feb-07 21:00N 75°24' E 030°42'1212.1 100 / 21999.1 -1.4-8.9 6.5
2019-Feb-07 20:00N 75°36' E 030°48'0 0.0 110 / 19999.6 -1.8-9.3 6.5
2019-Feb-07 19:00N 75°36' E 030°48'3 3.0 090 / 191000.0 -2.5-6.0 6.6
2019-Feb-07 18:00N 75°36' E 030°36'7 7.5 070 / 17999.8 -2.2-7.0 6.4
2019-Feb-07 17:00N 75°36' E 030°06'7 7.5 070 / 271000.2 -1.6-7.1 6.3
2019-Feb-07 16:00N 75°36' E 029°36'6 6.0 080 / 251000.6 -1.3-9.6 6.3
2019-Feb-07 15:00N 75°36' E 029°12'6 6.2 100 / 211000.9 -1.8-5.8 6.9
2019-Feb-07 14:00N 75°42' E 029°06'6 6.2 100 / 191001.1 -1.1-7.5 6.7
2019-Feb-07 13:00N 75°36' E 029°12'3 3.0 100 / 231001.7 -1.9-6.0 6.4
2019-Feb-07 12:00N 75°36' E 029°00'7 6.7 100 / 231002.1 -2.2-6.5 6.8
2019-Feb-07 11:00N 75°30' E 029°12'6 6.0 100 / 211002.1 -2.0-7.4 7.1
2019-Feb-07 10:00N 75°24' E 029°12'6 6.2 100 / 171001.9 -1.4-8.0 6.5
2019-Feb-07 09:00N 75°18' E 029°18'7 6.7 090 / 231002.3 -1.7-6.9 6.6
2019-Feb-07 08:00N 75°12' E 029°06'2 1.5 080 / 231002.6 -1.8-8.3 7.1
2019-Feb-07 07:00N 75°12' E 029°12'1212.0 090 / 231002.3 -1.8-6.7 6.8
2019-Feb-07 06:00N 75°00' E 029°12'1212.0 100 / 231002.6 -1.3-8.3 6.5
2019-Feb-07 05:00N 74°48' E 029°12'0 0.0 100 / 231002.8 -1.3-7.9 7.0
2019-Feb-07 04:00N 74°48' E 029°12'0 0.0 110 / 211002.7 -1.6-8.5 6.3
2019-Feb-07 03:00N 74°48' E 029°12'5 4.7 120 / 251003.0 -1.4-8.2 6.2
2019-Feb-07 02:00N 74°48' E 028°54'8 7.9 100 / 251003.2 -2.4-5.2 6.4
2019-Feb-07 01:00N 74°48' E 028°24'8 7.9 090 / 211003.3 -2.2-5.5 6.1
2019-Feb-07 00:00N 74°48' E 027°54'5 4.7 070 / 231003.9 -3.0-5.2 6.0
2019-Feb-06 23:00N 74°48' E 027°36'0 0.0 080 / 231005.1 -2.1-9.5 6.1
2019-Feb-06 22:00N 74°48' E 027°36'1212.0 090 / 211005.7 -1.5-9.9 6.4
2019-Feb-06 21:00N 75°00' E 027°36'6 6.0 090 / 271006.2 -2.7-8.7 5.8
2019-Feb-06 20:00N 75°06' E 027°36'6 6.0 100 / 271007.0 -2.4-9.9 5.6
2019-Feb-06 19:00N 75°12' E 027°36'2 1.5 100 / 251007.7 -2.5-9.0 5.7
2019-Feb-06 18:00N 75°12' E 027°30'2 1.5 100 / 231008.0 -2.0-8.6 5.1
2019-Feb-06 17:00N 75°12' E 027°24'8 7.7 090 / 271008.1 -2.3-8.2 4.7
2019-Feb-06 16:00N 75°12' E 026°54'8 7.7 090 / 251008.3 -2.3-9.1 5.2
2019-Feb-06 15:00N 75°12' E 026°24'3 3.1 090 / 251008.6 -2.3-10.3 5.1
2019-Feb-06 14:00N 75°12' E 026°12'2 1.5 100 / 231009.1 -2.7-11.0 5.1
2019-Feb-06 13:00N 75°12' E 026°06'6 6.0 090 / 271009.3 -2.9-10.8 5.4
2019-Feb-06 12:00N 75°06' E 026°06'6 6.0 090 / 231009.3 -2.7-9.5 5.9
2019-Feb-06 11:00N 75°00' E 026°06'1212.0 090 / 231009.2 -2.8-8.8 5.5
2019-Feb-06 10:00N 74°48' E 026°06'2 1.6 100 / 291009.7 -3.5-9.0 5.3
2019-Feb-06 09:00N 74°48' E 026°12'2 1.6 090 / 291009.7 -2.8-9.8 5.2
2019-Feb-06 08:00N 74°48' E 026°06'5 4.7 090 / 271010.2 -4.2-7.0 4.9
2019-Feb-06 07:00N 74°48' E 025°48'5 4.7 090 / 311010.3 -3.0-7.6 4.8
2019-Feb-06 06:00N 74°48' E 025°30'6 6.3 080 / 291010.5 -3.4-6.3 4.5
2019-Feb-06 05:00N 74°48' E 025°06'6 6.3 070 / 351010.7 -1.6-6.7 4.4
2019-Feb-06 04:00N 74°48' E 024°42'2 1.6 070 / 291011.6 -2.4-5.8 3.8
2019-Feb-06 03:00N 74°48' E 024°36'   070 / 271012.2 -2.2-6.1 4.1
Track history (hours):
 
Tides and Currents Weather Stations Pressure Air Temp Water Temp Dewpoint Dewpoint Depression Visibility Wind Speed Wind Dir Waves Ship Positions

Oceanographic research ship Johan Hjort (Norway)

Detailed information on ship capabilities available from University of Delaware's Ocean Information Center and ARCUS's ALIAS (Arctic Logistics Information and Support) project.

Last reported at 2019-Feb-16 03:00 UTC. Time now 2019-Feb-16 04:25 UTC.
Position N 72°42' E 036°48'.

MMSI: 257139000.

Wind from 020 at 14 knots

Barometer 1000.2 mb
Air temperature -6.4 ° C
Dewpoint -11.8 ° C
Water temperature 6.3 ° C

Date/timePositionNaut miles runAvg speedWind from/ knotsBaromVisibWave heightAir tempDewpointWater temp
2019-Feb-16 03:00N 72°42' E 036°48'1110.7 020 / 141000.2 -6.4-11.8 6.3
2019-Feb-16 02:00N 72°48' E 036°18'5 5.3 030 / 191000.2 -6.2-11.9 6.7
2019-Feb-16 01:00N 72°48' E 036°00'0 0.0 320 / 191000.1 -6.3-10.9 6.6
2019-Feb-16 00:00N 72°48' E 036°00'6 6.3 330 / 211000.0 -5.5-11.8 6.6
2019-Feb-15 23:00N 72°42' E 035°54'5 5.4 320 / 23999.7 -5.3-12.8 6.7
2019-Feb-15 22:00N 72°42' E 035°36'0 0.0 340 / 27999.2 -5.1-13.2 6.9
2019-Feb-15 21:00N 72°42' E 035°36'0 0.0 330 / 23999.2 -5.1-15.0 6.8
2019-Feb-15 20:00N 72°42' E 035°36'6 6.0 340 / 27998.1 -4.6-12.7 6.8
2019-Feb-15 19:00N 72°36' E 035°36'0 0.0 340 / 29997.6 -4.7-11.9 6.9
2019-Feb-15 18:00N 72°36' E 035°36'6 6.0 340 / 29996.8 -4.4-11.8 7.2
2019-Feb-15 17:00N 72°42' E 035°36'0 0.0 330 / 31996.0 -4.1-11.0 7.0
2019-Feb-15 16:00N 72°42' E 035°36'2 1.8 340 / 35994.7 -3.8-10.9 6.8
2019-Feb-15 15:00N 72°42' E 035°30'2 1.8 340 / 35993.7 -3.2-8.5 7.1
2019-Feb-15 14:00N 72°42' E 035°36'2 1.8 340 / 39992.2 -2.3-7.8 7.5
2019-Feb-15 13:00N 72°42' E 035°30'6 6.0 340 / 43990.1 -1.7-7.0 7.5
2019-Feb-15 12:00N 72°36' E 035°30'0 0.0 340 / 41988.5 -0.8-6.8 7.4
2019-Feb-15 11:00N 72°36' E 035°30'6 6.0 330 / 39987.0 -0.5-4.9 8.2
2019-Feb-15 10:00N 72°30' E 035°30'6 6.0 310 / 35985.7 0.2-4.9 7.8
2019-Feb-15 09:00N 72°24' E 035°30'0 0.0 330 / 27986.1 0.8-7.3 8.5
2019-Feb-15 08:00N 72°24' E 035°30'6 6.3 985.8 0.6-6.0 8.2
2019-Feb-15 07:00N 72°18' E 035°24'1212.0 030 / 21984.5 0.7-6.6 8.3
2019-Feb-15 06:00N 72°06' E 035°24'7 7.0 030 / 23983.3 0.7-6.8 8.1
2019-Feb-15 05:00N 72°00' E 035°12'6 6.0 040 / 23982.2 -0.2-3.0 7.7
2019-Feb-15 04:00N 72°06' E 035°12'18 9.0 050 / 16981.7 -0.3-3.4 7.8
2019-Feb-15 02:00N 71°48' E 035°18'6 6.0 140 / 10980.2 -1.3-3.3 7.9
2019-Feb-15 01:00N 71°42' E 035°18'2 1.9 130 / 8980.0 -1.9-3.9 7.6
2019-Feb-15 00:00N 71°42' E 035°12'9 9.4 140 / 14979.9 -1.2-3.6 7.9
2019-Feb-14 23:00N 71°42' E 034°42'9 9.4 140 / 12980.1 -1.1-3.7 8.2
2019-Feb-14 22:00N 71°42' E 034°12'6 6.0 140 / 12980.5 -0.9-3.0 8.1
2019-Feb-14 21:00N 71°48' E 034°12'1212.0 160 / 14981.8 -1.0-3.9 8.2
2019-Feb-14 20:00N 71°36' E 034°12'6 6.0 170 / 14982.7 -1.0-4.6 8.1
2019-Feb-14 19:00N 71°30' E 034°12'0 0.0 180 / 19984.1 -0.8-5.3 7.7
2019-Feb-14 18:00N 71°30' E 034°12'6 6.3 190 / 25985.7 -0.8-5.6 8.0
2019-Feb-14 17:00N 71°24' E 034°06'0 0.0 180 / 27987.6 -1.3-5.6 8.1
2019-Feb-14 16:00N 71°24' E 034°06'1212.0 200 / 25989.2 -0.2-4.3 8.0
2019-Feb-14 15:00N 71°12' E 034°06'6 6.0 200 / 23991.2 -0.6-4.7 7.6
2019-Feb-14 14:00N 71°06' E 034°06'2 1.9 210 / 25993.1 -1.3-4.8 7.9
2019-Feb-14 13:00N 71°06' E 034°12'7 7.2 210 / 27994.7 -1.5-4.9 8.1
2019-Feb-14 12:00N 71°00' E 034°00'1212.0 220 / 27996.2 -1.7-5.5 7.7
2019-Feb-14 11:00N 70°48' E 034°00'2 2.0 210 / 29998.3 -2.2-5.9 8.1
2019-Feb-14 10:00N 70°48' E 033°54'0 0.0 210 / 29999.7 -2.3-6.2 7.9
2019-Feb-14 09:00N 70°48' E 033°54'6 5.9 210 / 331001.1 -1.8-5.4 7.9
2019-Feb-14 08:00N 70°48' E 033°36'10 9.9 210 / 311002.3 -1.7-5.7 8.2
2019-Feb-14 07:00N 70°48' E 033°06'7 7.2 210 / 311002.7 -1.5-5.4 7.8
2019-Feb-14 06:00N 70°42' E 032°54'6 6.0 210 / 331004.1 -0.9-6.0 8.3
2019-Feb-14 05:00N 70°36' E 032°54'1212.0 210 / 311005.5 -0.9-7.4 7.7
2019-Feb-14 04:00N 70°24' E 032°54'541.6 200 / 251007.1 -1.0-8.7 8.1
2019-Feb-14 03:52N 70°29' E 032°56'6 6.4
2019-Feb-14 03:00N 70°24' E 033°00'6 6.0 200 / 311007.7 -1.3-10.9 8.1
2019-Feb-14 02:00N 70°24' E 033°18'1010.1 200 / 331008.1 -1.1-11.7 7.7
2019-Feb-14 01:00N 70°24' E 033°48'4 4.0 210 / 231009.0 -0.7-11.0 7.9
2019-Feb-14 00:00N 70°24' E 034°00'87 5.8 220 / 191009.4 -0.0-8.4 8.0
2019-Feb-13 09:00N 69°00' E 033°00'12 6.1 160 / 81003.2 -3.7-6.9 8.3
2019-Feb-13 07:00N 69°06' E 033°30'6 6.0 040 / 141001.2 -0.2-7.3 8.1
2019-Feb-13 06:00N 69°12' E 033°30'1212.0 030 / 141000.7 -0.4-6.1 8.2
2019-Feb-13 05:00N 69°24' E 033°30'6 6.0 020 / 231000.5 -0.4-6.1 8.0
2019-Feb-13 04:00N 69°30' E 033°30'1212.0 030 / 211000.1 -0.0-7.4 8.0
2019-Feb-13 03:00N 69°42' E 033°30'6 6.0 020 / 23999.8 1.1-7.5 8.4
2019-Feb-13 02:00N 69°48' E 033°30'9 8.6 020 / 23 0.2-8.0 8.5
2019-Feb-13 01:00N 69°54' E 033°12'810.4 040 / 21998.7 -0.0-7.0 8.1
2019-Feb-13 00:15N 70°00' E 032°59'210.0
2019-Feb-13 00:00N 70°02' E 032°53'2171.9
2019-Feb-13 00:00N 70°00' E 032°48'510.3 030 / 21998.7 0.1-6.2 8.7
2019-Feb-12 23:30N 70°04' E 032°40'611.0
2019-Feb-12 23:00N 70°06' E 032°24'1892.1 020 / 23998.5 -0.0-7.7 8.3
2019-Feb-12 22:59N 70°07' E 032°25'511.1
2019-Feb-12 22:30N 70°09' E 032°11'612.1
2019-Feb-12 22:00N 70°06' E 031°54'42672.2 020 / 21998.6 0.2-6.0 8.6
2019-Feb-12 21:59N 70°10' E 031°54'510.3
2019-Feb-12 21:30N 70°09' E 031°40'510.2
2019-Feb-12 21:00N 70°07' E 031°25'2210.2
2019-Feb-12 21:00N 70°06' E 031°24'4 8.6 030 / 19998.2 0.2-4.5 8.9
2019-Feb-12 20:30N 70°05' E 031°12'510.4
2019-Feb-12 20:00N 70°03' E 030°59'3436.7
2019-Feb-12 20:00N 70°00' E 030°54'3 5.8 020 / 25997.8 0.4-4.6 8.7
2019-Feb-12 19:30N 70°00' E 030°46'510.4
2019-Feb-12 19:00N 69°58' E 030°32'4360.6
2019-Feb-12 19:00N 69°54' E 030°30'4 7.6 020 / 23997.5 1.1-4.9 9.5
2019-Feb-12 18:30N 69°55' E 030°20'5 9.3
2019-Feb-12 18:00N 69°53' E 030°08'53323.0
2019-Feb-12 18:00N 69°48' E 030°06'1 1.3 150 / 19997.3 0.5-3.0 9.0
2019-Feb-12 17:30N 69°49' E 030°06'5 9.4
2019-Feb-12 17:00N 69°44' E 030°04'3165.8
2019-Feb-12 17:00N 69°42' E 030°00'2 4.8 160 / 2997.1 -6.2-8.7 9.1
2019-Feb-12 16:30N 69°44' E 030°05'0 0.0
2019-Feb-12 16:00N 69°44' E 030°05'2165.5
2019-Feb-12 16:00N 69°42' E 030°00'2 4.5 160 / 2996.8 -6.8-9.610.0
2019-Feb-12 15:27N 69°44' E 030°05'0 0.0
2019-Feb-12 15:00N 69°44' E 030°05'2172.1
2019-Feb-12 15:00N 69°42' E 030°00'2 4.9 160 / 2996.3 -7.0-9.9 9.0
2019-Feb-12 14:30N 69°44' E 030°05'0 0.0
2019-Feb-12 14:00N 69°44' E 030°05'2175.6
2019-Feb-12 14:00N 69°42' E 030°00'2 4.9 160 / 4995.8 -7.5-10.8 9.3
2019-Feb-12 13:30N 69°44' E 030°05'0 0.0
2019-Feb-12 13:00N 69°44' E 030°05'2179.2
2019-Feb-12 13:00N 69°42' E 030°00'2 4.9 170 / 2995.3 -7.1-10.5 9.1
2019-Feb-12 12:30N 69°44' E 030°05'0 0.0
2019-Feb-12 12:00N 69°44' E 030°05'2191.2
2019-Feb-12 12:00N 69°42' E 030°00'2 4.9 170 / 2994.7 -7.7-11.1 8.6
2019-Feb-12 11:30N 69°44' E 030°05'0 0.0
2019-Feb-12 11:00N 69°44' E 030°05'2200.1
2019-Feb-12 11:00N 69°42' E 030°00'2 4.9 180 / 4994.1 -7.7-11.3 8.7
2019-Feb-12 10:30N 69°44' E 030°05'0 0.0
2019-Feb-12 10:00N 69°44' E 030°05'2200.1
2019-Feb-12 10:00N 69°42' E 030°00'2 4.9 180 / 4994.1 -7.9-11.4 8.8
2019-Feb-12 09:30N 69°44' E 030°05'0 0.0
2019-Feb-12 09:00N 69°44' E 030°05'2209.8
2019-Feb-12 09:00N 69°42' E 030°00'2 4.9 170 / 4993.7 -7.8-11.7 8.4
2019-Feb-12 08:30N 69°44' E 030°05'0 0.0
2019-Feb-12 08:00N 69°44' E 030°05'2220.6
2019-Feb-12 08:00N 69°42' E 030°00'2 4.9 170 / 4993.2 -7.9-11.8 8.6
2019-Feb-12 07:30N 69°44' E 030°05'0 0.0
2019-Feb-12 07:00N 69°44' E 030°05'2232.5
2019-Feb-12 07:00N 69°42' E 030°00'2 4.9 170 / 4993.3 -8.0-11.8 8.8
2019-Feb-12 06:30N 69°44' E 030°05'0 0.0
2019-Feb-12 06:00N 69°44' E 030°05'2239.0
2019-Feb-12 06:00N 69°42' E 030°00'2 4.9 170 / 4993.5 -8.0-11.6 8.9
2019-Feb-12 05:30N 69°44' E 030°05'0 0.0
2019-Feb-12 05:00N 69°44' E 030°05'2245.8
2019-Feb-12 05:00N 69°42' E 030°00'2 4.9 190 / 4993.1 -8.0-11.6 8.3
2019-Feb-12 04:30N 69°44' E 030°05'0 0.0
2019-Feb-12 04:00N 69°44' E 030°05'2268.9
2019-Feb-12 04:00N 69°42' E 030°00'2 4.9 190 / 4993.5 -8.0-11.6 8.6
2019-Feb-12 03:30N 69°44' E 030°05'0 0.0
2019-Feb-12 03:00N 69°44' E 030°05'2277.5
2019-Feb-12 03:00N 69°42' E 030°00'2 4.9 210 / 6993.6 -7.7-11.5 8.7
2019-Feb-12 02:30N 69°44' E 030°05'0 0.0
2019-Feb-12 02:00N 69°44' E 030°05'2296.7
2019-Feb-12 02:00N 69°42' E 030°00'2 4.9 210 / 6993.3 -6.7-10.0 8.6
2019-Feb-12 01:30N 69°44' E 030°05'0 0.0
2019-Feb-12 01:00N 69°44' E 030°05'2318.7
2019-Feb-12 01:00N 69°42' E 030°00'2 4.9 180 / 8993.0 -6.5-9.8 8.4
2019-Feb-12 00:30N 69°44' E 030°05'0 0.0
2019-Feb-12 00:00N 69°44' E 030°05'2330.9
2019-Feb-12 00:00N 69°42' E 030°00'2 4.8 200 / 8993.0 -5.9-9.0 8.4
2019-Feb-11 23:30N 69°44' E 030°05'0 0.0
2019-Feb-11 23:00N 69°44' E 030°05'2358.5
2019-Feb-11 23:00N 69°42' E 030°00'2 4.8 220 / 8992.8 -4.9-8.0 8.7
2019-Feb-11 22:30N 69°44' E 030°05'0 0.0
2019-Feb-11 22:00N 69°44' E 030°05'2374.1
2019-Feb-11 22:00N 69°42' E 030°00'2 4.8 210 / 6992.3 -4.7-8.0 8.6
2019-Feb-11 21:30N 69°44' E 030°05'0 0.0
2019-Feb-11 21:00N 69°44' E 030°05'2409.7
2019-Feb-11 21:00N 69°42' E 030°00'2 4.8 200 / 6992.1 -4.4-7.4 8.4
2019-Feb-11 20:30N 69°44' E 030°05'0 0.0
2019-Feb-11 20:00N 69°44' E 030°05'2430.2
2019-Feb-11 20:00N 69°42' E 030°00'2 4.8 190 / 6991.7 -4.0-7.3 8.5
2019-Feb-11 19:30N 69°44' E 030°05'0 0.0
2019-Feb-11 19:00N 69°44' E 030°05'2478.0
2019-Feb-11 19:00N 69°42' E 030°00'2 4.8 190 / 4991.7 -3.8-7.2 8.5
2019-Feb-11 18:30N 69°44' E 030°05'0 0.0
2019-Feb-11 18:00N 69°44' E 030°05'2506.1
2019-Feb-11 18:00N 69°42' E 030°00'2 4.9 190 / 6991.0 -3.7-7.1 8.4
2019-Feb-11 17:30N 69°44' E 030°05'3 6.2
2019-Feb-11 17:00N 69°47' E 030°05'5356.5
2019-Feb-11 17:00N 69°42' E 030°00'918.5 190 / 10991.0 -2.8-5.9 8.1
2019-Feb-11 16:30N 69°51' E 030°07'5 9.6
2019-Feb-11 16:00N 69°55' E 030°12'1107.5
2019-Feb-11 16:00N 69°54' E 030°12'612.3 220 / 12990.2 -1.6-5.3 8.3
2019-Feb-11 15:30N 69°59' E 030°22'5 9.8
2019-Feb-11 15:00N 70°02' E 030°32'3270.1
2019-Feb-11 15:00N 70°00' E 030°30'714.9 240 / 14855.9 -1.1-4.0 8.6
2019-Feb-11 14:30N 70°06' E 030°42'5 9.9
2019-Feb-11 14:00N 70°10' E 030°52'4443.8
2019-Feb-11 14:00N 70°06' E 030°48'917.7 240 / 16988.8 -0.6-3.4 8.4
2019-Feb-11 13:30N 70°13' E 031°03'510.5
2019-Feb-11 13:00N 70°18' E 031°11'64296.5
2019-Feb-11 13:00N 70°12' E 031°06'1122.7 220 / 12988.1 -0.5-2.9 8.3
2019-Feb-11 12:30N 70°23' E 031°15'510.1
2019-Feb-11 12:00N 70°27' E 031°20'41062.0
2019-Feb-11 12:00N 70°24' E 031°18'917.6 230 / 4987.7 -0.0-2.0 8.8
2019-Feb-11 11:30N 70°33' E 031°23'510.7
2019-Feb-11 11:00N 70°38' E 031°24'21163.1
2019-Feb-11 11:00N 70°36' E 031°24'714.5 180 / 6987.2 0.4-1.9 8.3
2019-Feb-11 10:30N 70°43' E 031°28'510.5
2019-Feb-11 10:00N 70°48' E 031°31'178.6
2019-Feb-11 10:00N 70°48' E 031°30'511.2 150 / 8987.2 0.6-2.9 8.6
2019-Feb-11 09:30N 70°53' E 031°35'510.7
2019-Feb-11 09:00N 70°58' E 031°39'510.7
2019-Feb-11 08:30N 71°04' E 031°42'510.7
2019-Feb-11 08:00N 71°09' E 031°45'3211.3
2019-Feb-11 08:00N 71°06' E 031°42'917.4 130 / 8986.6 1.3-3.0 8.8
2019-Feb-11 07:30N 71°14' E 031°49'510.5
2019-Feb-11 07:00N 71°19' E 031°52'2569.2
2019-Feb-11 07:00N 71°18' E 031°48'813.7 110 / 12986.5 1.8-2.3 8.7
2019-Feb-11 06:26N 71°25' E 031°55'1 2.8
2019-Feb-11 06:00N 71°24' E 031°54'2512.3 090 / 25986.5 2.1-2.1 8.5
2019-Feb-11 04:00N 71°48' E 032°12'1212.1 090 / 27987.3 1.2-2.6 8.4
2019-Feb-11 03:00N 72°00' E 032°18'6 6.3 080 / 27987.8 0.9-2.1 8.3
2019-Feb-11 02:00N 72°06' E 032°24'1212.1 080 / 27988.2 0.5-2.7 8.1
2019-Feb-11 01:00N 72°18' E 032°30'1312.5 080 / 25989.4 0.2-4.1 8.4
2019-Feb-11 00:00N 72°30' E 032°42'6 6.0 090 / 27990.0 0.1-4.5 8.2
2019-Feb-10 23:00N 72°36' E 032°42'1312.5 090 / 29990.2 0.2-5.6 8.0
2019-Feb-10 22:00N 72°48' E 032°54'1212.1 090 / 29990.8 0.2-6.3 8.1
2019-Feb-10 21:00N 73°00' E 033°00'7 6.9 100 / 29991.6 -0.0-8.3 7.5
2019-Feb-10 20:00N 73°06' E 033°12'1212.1 100 / 27992.1 -0.0-7.2 7.7
2019-Feb-10 19:00N 73°18' E 033°18'1212.1 090 / 27992.7 -0.1-6.9 7.8
2019-Feb-10 18:00N 73°30' E 033°24'6 6.2 100 / 23993.6 -0.4-6.4 8.1
2019-Feb-10 17:00N 73°36' E 033°30'1212.5 090 / 23994.1 -0.4-7.5 8.0
2019-Feb-10 16:00N 73°48' E 033°42'6 6.2 090 / 25995.0 -0.5-8.0 8.1
2019-Feb-10 15:00N 73°54' E 033°48'6 6.2 090 / 23995.2 -0.9-5.6 7.7
2019-Feb-10 14:00N 74°00' E 033°42'2 1.7 090 / 23995.7 -1.0-9.6 7.8
2019-Feb-10 13:00N 74°00' E 033°36'8 8.3 090 / 23996.0 -1.1-7.6 7.5
2019-Feb-10 12:00N 74°00' E 034°06'10 9.9 100 / 19996.4 -1.1-7.9 7.4
2019-Feb-10 11:00N 74°00' E 034°42'7 6.6 090 / 17996.7 -1.0-7.4 7.7
2019-Feb-10 10:00N 74°00' E 035°06'6 6.2 090 / 16996.7 -1.1-8.7 7.0
2019-Feb-10 09:00N 73°54' E 035°00'9 8.9 090 / 16996.7 -1.0-8.2 7.2
2019-Feb-10 08:00N 74°00' E 035°24'10 9.9 110 / 16996.7 -1.3-7.5 7.2
2019-Feb-10 07:00N 74°00' E 036°00'9 4.5 100 / 16996.7 -1.2-9.2 6.9
2019-Feb-10 05:00N 73°54' E 036°24'6 6.2 090 / 12997.1 -1.6-6.5 7.1
2019-Feb-10 04:00N 74°00' E 036°30'6 6.0 100 / 14997.0 -2.0-6.6 6.7
2019-Feb-10 03:00N 74°06' E 036°30'1212.1 100 / 19997.1 -1.6-8.8 6.6
2019-Feb-10 02:00N 74°18' E 036°36'0 0.0 100 / 16997.6 -1.6-10.5 6.5
2019-Feb-10 01:00N 74°18' E 036°36'0 0.0 110 / 16997.7 0.9-8.5 6.9
2019-Feb-10 00:00N 74°18' E 036°36'1010.1 110 / 16997.5 -1.6-7.9 6.7
2019-Feb-09 23:00N 74°24' E 036°06'8 8.1 100 / 16997.3 -1.3-8.4 6.5
2019-Feb-09 22:00N 74°24' E 035°36'6 6.5 120 / 17997.2 -1.1-8.4 6.5
2019-Feb-09 21:00N 74°24' E 035°12'0 0.0 120 / 16997.2 -0.8-8.3 6.7
2019-Feb-09 20:00N 74°24' E 035°12'8 8.1 130 / 16997.0 -0.9-8.6 6.6
2019-Feb-09 19:00N 74°24' E 034°42'10 9.7 120 / 17996.5 -0.8-9.7 6.8
2019-Feb-09 18:00N 74°24' E 034°06'6 6.5 140 / 21995.8 -0.6-7.7 6.6
2019-Feb-09 17:00N 74°24' E 033°42'2 1.6 150 / 23995.5 -0.2-5.9 6.4
2019-Feb-09 16:00N 74°24' E 033°36'6 6.5 160 / 14995.5 -1.1-3.4 6.6
2019-Feb-09 15:00N 74°24' E 033°12'10 9.7 130 / 16995.0 -0.6-4.4 6.8
2019-Feb-09 14:00N 74°24' E 032°36'5 4.8 080 / 17994.5 -0.5-4.7 6.4
2019-Feb-09 13:00N 74°24' E 032°18'3 3.2 040 / 6994.5 -1.1-5.0 6.3
2019-Feb-09 12:00N 74°24' E 032°06'3 3.2 050 / 25994.6 -1.6-3.8 6.6
2019-Feb-09 11:00N 74°24' E 032°18'6 6.2 070 / 25994.8 -1.6-4.5 6.8
2019-Feb-09 10:00N 74°30' E 032°12'6 6.0 070 / 25995.0 -0.8-5.4 6.2
2019-Feb-09 09:00N 74°36' E 032°12'1212.0 070 / 23995.8 -0.2-5.8 6.6
2019-Feb-09 08:00N 74°48' E 032°12'6 6.0 080 / 21848.4 -0.5-9.9 6.7
2019-Feb-09 07:00N 74°54' E 032°12'9 8.7 090 / 21996.6 -0.5-8.3 6.5
2019-Feb-09 06:00N 74°48' E 032°36'9 9.4 090 / 19996.7 -0.1-8.1 6.0
2019-Feb-09 05:00N 74°48' E 033°12'8 7.9 090 / 17997.2 -0.8-8.5 6.6
2019-Feb-09 04:00N 74°48' E 033°42'0 0.0 090 / 17997.2 -1.0-7.3 6.0
2019-Feb-09 03:00N 74°48' E 033°42'1111.0 110 / 17997.7 -0.5-6.6 6.1
2019-Feb-09 02:00N 74°48' E 034°24'9 9.4 110 / 19998.0 -1.2-6.3 6.2
2019-Feb-09 01:00N 74°48' E 035°00'3 3.1 120 / 17998.0 -0.9-6.7 6.1
2019-Feb-09 00:00N 74°48' E 035°12'2 1.6 110 / 14998.2 -0.9-6.7 5.8
2019-Feb-08 23:00N 74°48' E 035°18'3 3.1 100 / 16998.6 -1.2-4.9 5.5
2019-Feb-08 22:00N 74°48' E 035°30'10 9.9 120 / 16999.0 -1.7-5.5 5.6
2019-Feb-08 21:00N 74°42' E 036°00'6 6.0 110 / 14999.1 -0.8-6.2 5.8
2019-Feb-08 20:00N 74°48' E 036°00'6 6.3 110 / 14954.0 -0.7-5.9 5.4
2019-Feb-08 19:00N 74°48' E 036°24'1212.4 100 / 17999.2 -0.8-6.3 5.2
2019-Feb-08 18:00N 75°00' E 036°36'6 6.2 100 / 17999.7 -1.2-5.7 5.1
2019-Feb-08 17:00N 75°06' E 036°42'6 6.2 100 / 171000.2 -1.3-6.9 5.6
2019-Feb-08 16:00N 75°12' E 036°48'6 6.0 100 / 161000.6 -1.3-6.0 5.7
2019-Feb-08 15:00N 75°06' E 036°48'9 8.6 100 / 171000.5 -1.1-7.2 5.5
2019-Feb-08 14:00N 75°12' E 036°24'9 9.2 100 / 191000.7 -1.1-6.9 5.4
2019-Feb-08 13:00N 75°12' E 035°48'8 7.7 100 / 191000.8 -1.1-7.3 5.7
2019-Feb-08 12:00N 75°12' E 035°18'0 0.0 110 / 191000.6 -1.5-6.1 6.3
2019-Feb-08 11:00N 75°12' E 035°18'2 1.5 110 / 211000.6 -1.1-6.4 6.6
2019-Feb-08 10:00N 75°12' E 035°24'5 4.6 110 / 211000.7 -1.1-7.3 6.3
2019-Feb-08 09:00N 75°12' E 035°06'9 9.2 110 / 191000.6 -1.1-7.5 6.6
2019-Feb-08 08:00N 75°12' E 034°30'8 7.7 110 / 211000.3 -0.6-7.2 7.2
2019-Feb-08 07:00N 75°12' E 034°00'2 1.5 110 / 211000.1 -0.4-7.5 7.4
2019-Feb-08 06:00N 75°12' E 033°54'2 1.5 120 / 19999.8 -0.6-6.1 6.8
2019-Feb-08 05:00N 75°12' E 033°48'9 9.2 130 / 19999.6 -0.6-6.5 6.9
2019-Feb-08 04:00N 75°12' E 033°12'9 9.2 120 / 14999.5 -0.6-7.0 6.7
2019-Feb-08 03:00N 75°12' E 032°36'5 4.6 110 / 12999.5 -0.9-7.2 7.0
2019-Feb-08 02:00N 75°12' E 032°18'8 7.7 120 / 14999.2 -0.9-7.3 6.9
2019-Feb-08 01:00N 75°12' E 031°48'8 7.7 140 / 10999.0 -0.5-10.9 6.7
2019-Feb-08 00:00N 75°12' E 031°18'8 7.7 130 / 12998.6 -0.5-10.8 6.6
2019-Feb-07 23:00N 75°12' E 030°48'6 6.2 100 / 16998.2 -0.8-5.7 6.8
2019-Feb-07 22:00N 75°18' E 030°42'6 6.0 090 / 16998.6 -1.4-4.7 7.0
2019-Feb-07 21:00N 75°24' E 030°42'1212.1 100 / 21999.1 -1.4-8.9 6.5
2019-Feb-07 20:00N 75°36' E 030°48'0 0.0 110 / 19999.6 -1.8-9.3 6.5
2019-Feb-07 19:00N 75°36' E 030°48'3 3.0 090 / 191000.0 -2.5-6.0 6.6
2019-Feb-07 18:00N 75°36' E 030°36'7 7.5 070 / 17999.8 -2.2-7.0 6.4
2019-Feb-07 17:00N 75°36' E 030°06'7 7.5 070 / 271000.2 -1.6-7.1 6.3
2019-Feb-07 16:00N 75°36' E 029°36'6 6.0 080 / 251000.6 -1.3-9.6 6.3
2019-Feb-07 15:00N 75°36' E 029°12'6 6.2 100 / 211000.9 -1.8-5.8 6.9
2019-Feb-07 14:00N 75°42' E 029°06'6 6.2 100 / 191001.1 -1.1-7.5 6.7
2019-Feb-07 13:00N 75°36' E 029°12'3 3.0 100 / 231001.7 -1.9-6.0 6.4
2019-Feb-07 12:00N 75°36' E 029°00'7 6.7 100 / 231002.1 -2.2-6.5 6.8
2019-Feb-07 11:00N 75°30' E 029°12'6 6.0 100 / 211002.1 -2.0-7.4 7.1
2019-Feb-07 10:00N 75°24' E 029°12'6 6.2 100 / 171001.9 -1.4-8.0 6.5
2019-Feb-07 09:00N 75°18' E 029°18'7 6.7 090 / 231002.3 -1.7-6.9 6.6
2019-Feb-07 08:00N 75°12' E 029°06'2 1.5 080 / 231002.6 -1.8-8.3 7.1
2019-Feb-07 07:00N 75°12' E 029°12'1212.0 090 / 231002.3 -1.8-6.7 6.8
2019-Feb-07 06:00N 75°00' E 029°12'1212.0 100 / 231002.6 -1.3-8.3 6.5
2019-Feb-07 05:00N 74°48' E 029°12'0 0.0 100 / 231002.8 -1.3-7.9 7.0
2019-Feb-07 04:00N 74°48' E 029°12'0 0.0 110 / 211002.7 -1.6-8.5 6.3
2019-Feb-07 03:00N 74°48' E 029°12'5 4.7 120 / 251003.0 -1.4-8.2 6.2
2019-Feb-07 02:00N 74°48' E 028°54'8 7.9 100 / 251003.2 -2.4-5.2 6.4
2019-Feb-07 01:00N 74°48' E 028°24'8 7.9 090 / 211003.3 -2.2-5.5 6.1
2019-Feb-07 00:00N 74°48' E 027°54'5 4.7 070 / 231003.9 -3.0-5.2 6.0
2019-Feb-06 23:00N 74°48' E 027°36'0 0.0 080 / 231005.1 -2.1-9.5 6.1
2019-Feb-06 22:00N 74°48' E 027°36'1212.0 090 / 211005.7 -1.5-9.9 6.4
2019-Feb-06 21:00N 75°00' E 027°36'6 6.0 090 / 271006.2 -2.7-8.7 5.8
2019-Feb-06 20:00N 75°06' E 027°36'6 6.0 100 / 271007.0 -2.4-9.9 5.6
2019-Feb-06 19:00N 75°12' E 027°36'2 1.5 100 / 251007.7 -2.5-9.0 5.7
2019-Feb-06 18:00N 75°12' E 027°30'2 1.5 100 / 231008.0 -2.0-8.6 5.1
2019-Feb-06 17:00N 75°12' E 027°24'8 7.7 090 / 271008.1 -2.3-8.2 4.7
2019-Feb-06 16:00N 75°12' E 026°54'8 7.7 090 / 251008.3 -2.3-9.1 5.2
2019-Feb-06 15:00N 75°12' E 026°24'3 3.1 090 / 251008.6 -2.3-10.3 5.1
2019-Feb-06 14:00N 75°12' E 026°12'2 1.5 100 / 231009.1 -2.7-11.0 5.1
2019-Feb-06 13:00N 75°12' E 026°06'6 6.0 090 / 271009.3 -2.9-10.8 5.4
2019-Feb-06 12:00N 75°06' E 026°06'6 6.0 090 / 231009.3 -2.7-9.5 5.9
2019-Feb-06 11:00N 75°00' E 026°06'1212.0 090 / 231009.2 -2.8-8.8 5.5
2019-Feb-06 10:00N 74°48' E 026°06'2 1.6 100 / 291009.7 -3.5-9.0 5.3
2019-Feb-06 09:00N 74°48' E 026°12'2 1.6 090 / 291009.7 -2.8-9.8 5.2
2019-Feb-06 08:00N 74°48' E 026°06'5 4.7 090 / 271010.2 -4.2-7.0 4.9
2019-Feb-06 07:00N 74°48' E 025°48'5 4.7 090 / 311010.3 -3.0-7.6 4.8
2019-Feb-06 06:00N 74°48' E 025°30'6 6.3 080 / 291010.5 -3.4-6.3 4.5
2019-Feb-06 05:00N 74°48' E 025°06'6 6.3 070 / 351010.7 -1.6-6.7 4.4
2019-Feb-06 04:00N 74°48' E 024°42'2 1.6 070 / 291011.6 -2.4-5.8 3.8
2019-Feb-06 03:00N 74°48' E 024°36'   070 / 271012.2 -2.2-6.1 4.1

Dump ship's entire track history